Zlatníky-Hodkovice, Czech Republic

11:58 AM CET on February 08, 2016 (GMT +0100)
OKROUHLO | | Change Station
CLOSE
Current Station
Personal Weather Station
Location: Okrouhlo, CENTRAL BOHEMIA
Elevation: 1115 ft
Nearby Weather Stations

Elev 1115 ft 49.92 °N, 14.45 °E | Updated 1 minute ago

Clear
Clear
49.6 °F
Feels Like 50 °F
N
3.0
Wind Variable Wind from SSW
Gusts 13.0 mph

Today
High -- | Low -- °F
--% Chance of Precip.
Yesterday
High -- | Low -- °F
Precip. -- in
Pressure 29.68 in
Visibility -9999.0 miles
Clouds
Windchill 50 °F
Dew Point 35 °F
Humidity 57%
Rainfall 0.00 in
Snow Depth Not available.
7:25 AM 5:07 PM
Waning Crescent, 0% visible
METAR LKPR 081030Z 17015KT CAVOK 08/01 Q1005 NOSIG
Pressure 29.68 in
Visibility -9999.0 miles
Clouds
Windchill 50 °F
Dew Point 35 °F
Humidity 57%
Rainfall 0.00 in
Snow Depth Not available.
7:25 AM 5:07 PM
Waning Crescent, 0% visible
METAR LKPR 081030Z 17015KT CAVOK 08/01 Q1005 NOSIG

10-Day Weather Forecast

Almanac

Astronomy

Feb. 08, 2016 Rise Set
Actual Time
Civil Twilight
Nautical Twilight
Astronomical Twilight
Moon
Length of Visible Light
Length of Day
Tomorrow will be .
, % of the Moon is Illuminated

Today's Extremes

Country Highs Country Lows

Community

WunderPhotos

Upload Photos

1,891,420 photos uploaded!

WunderBlog® & News

Nearby

Air Quality

  Air Quality AQ Index Pollutant
Not available.

Snow Depth

Station Depth Elevation

Earthquake Activity

City Distance Mag. Time & Date
Minimum magnitude displayed is 2.5.

Coastal Water Temperatures

Place Temperature

Stations

Nearby Weather Stations

Station Location Temp. Windchill Dew Point Humidity Wind Precip. Elev Updated Type